Aérodrome :
LOGIN :

S'inscrire | Disclaimer

   EN    FR    IT 

 










Légende :    VFR   VFR Marginal   IFR   IFR Intensif   IFR Très Intensif
Visi : 
Plafond : 
>= 8 km
>= 3000ft
5 à 8 km
1000 à 3000 ft
1500m à 5 km
500 à 1000 ft
800 à 1500m
200 à 500 ft
< 800m
< 200 ft
Symboles :   Orages  Brouillard  Fortes neiges  Fortes précipitations  Vent > 20 kt
SIGMETs :   Divers  Orages  Givrage  Turbulence  Onde Orograph.  Cendres Volcan.







- Altitude de l'aérodrome : 15 ft
- Code IATA : BHD
- Voir les cartes d'approche


EGAC - George Best Belfast City

DERNIER METAR :
  • 261820Z 16009KT 130V190 CAVOK 23/12 Q1012

METARs EXPIRÉS :
  • 261750Z 16010KT CAVOK 23/12 Q1012
  • 261720Z 15011KT 110V180 CAVOK 24/12 Q1012
  • 261650Z 14011KT CAVOK 24/13 Q1012
  • 261620Z 14011KT 110V170 CAVOK 24/13 Q1012
  • 261550Z 15013KT CAVOK 24/12 Q1013

TAF TAF EGAC
Valide du 26 à 18h jusqu'au 27 à 03h UTC


261659Z 2618/2703 15012KT 9999 FEW040
ATIS : +44 02890 935 124
Pas de NOTAMs connus pour ce terrain.
1 SIGMET publié pour la FIR Scottish (EGPX) :
 
Orages noyés dans la masse
EGPX SIGMET 02 VALID 261800/262200 EGRR
EGPX SCOTTISH FIR EMBD TS OBS WI N5520 W00815 - N5445 W00900 - N5435 W00956 - N5659 W00916 - N5654 W00732 - N5522 W00755 - N5520 W00815 TOP FL350 MOV N 20KT NC=



MET'MAP, la Météo Aéronautique d'un coup d'oeil ! - Copyright ORBIFLY Décembre 2007 - Disclaimer

ORBIFLY MET'MAP TEAM :

Programmation & Développement : Alexandra Zaïnal
Conception & Développement : Baudouin d'Aumeries
Co-Programmation & Développement : Marc-Olivier Méhu
Soutien technique & logistique : Manuel Goepfert

Contact : metmap@orbifly.com




SOURCES & CREDITS :

   NOAA